sensor_id;sensor_type;location;lat;lon;timestamp;temperature;humidity
41178;DHT22;26912;54.292;18.574;2022-07-15T00:01:25;24.90;51.40
41178;DHT22;26912;54.292;18.574;2022-07-15T00:03:51;24.80;51.20
41178;DHT22;26912;54.292;18.574;2022-07-15T00:06:17;24.70;51.20
41178;DHT22;26912;54.292;18.574;2022-07-15T00:08:44;24.60;51.50
41178;DHT22;26912;54.292;18.574;2022-07-15T00:11:10;24.40;51.80
41178;DHT22;26912;54.292;18.574;2022-07-15T00:13:37;24.20;52.20
41178;DHT22;26912;54.292;18.574;2022-07-15T00:16:03;24.00;53.50
41178;DHT22;26912;54.292;18.574;2022-07-15T00:18:31;23.90;53.10
41178;DHT22;26912;54.292;18.574;2022-07-15T00:20:57;23.50;54.00
41178;DHT22;26912;54.292;18.574;2022-07-15T00:23:24;23.50;54.20
41178;DHT22;26912;54.292;18.574;2022-07-15T00:25:50;23.30;54.60
41178;DHT22;26912;54.292;18.574;2022-07-15T00:28:16;23.30;54.70
41178;DHT22;26912;54.292;18.574;2022-07-15T00:30:43;23.40;54.70
41178;DHT22;26912;54.292;18.574;2022-07-15T00:33:09;23.50;54.40
41178;DHT22;26912;54.292;18.574;2022-07-15T00:35:37;23.50;54.00
41178;DHT22;26912;54.292;18.574;2022-07-15T00:38:04;23.50;54.00
41178;DHT22;26912;54.292;18.574;2022-07-15T00:40:42;23.40;54.40
41178;DHT22;26912;54.292;18.574;2022-07-15T00:43:09;23.40;54.20
41178;DHT22;26912;54.292;18.574;2022-07-15T00:45:36;23.20;54.60
41178;DHT22;26912;54.292;18.574;2022-07-15T00:48:02;23.20;54.90
41178;DHT22;26912;54.292;18.574;2022-07-15T00:50:30;23.10;54.80
41178;DHT22;26912;54.292;18.574;2022-07-15T00:53:05;22.70;55.50
41178;DHT22;26912;54.292;18.574;2022-07-15T00:55:40;22.40;56.40
41178;DHT22;26912;54.292;18.574;2022-07-15T00:58:13;22.20;57.10
41178;DHT22;26912;54.292;18.574;2022-07-15T01:00:42;22.30;57.10
41178;DHT22;26912;54.292;18.574;2022-07-15T01:03:09;22.40;56.80
41178;DHT22;26912;54.292;18.574;2022-07-15T01:05:36;22.50;56.60
41178;DHT22;26912;54.292;18.574;2022-07-15T01:08:03;22.30;56.90
41178;DHT22;26912;54.292;18.574;2022-07-15T01:10:30;22.40;57.10
41178;DHT22;26912;54.292;18.574;2022-07-15T01:12:56;22.50;57.00
41178;DHT22;26912;54.292;18.574;2022-07-15T01:15:28;22.40;56.90
41178;DHT22;26912;54.292;18.574;2022-07-15T01:17:58;22.30;57.90
41178;DHT22;26912;54.292;18.574;2022-07-15T01:20:25;22.40;57.70
41178;DHT22;26912;54.292;18.574;2022-07-15T01:22:58;22.40;57.20
41178;DHT22;26912;54.292;18.574;2022-07-15T01:25:39;22.40;57.30
41178;DHT22;26912;54.292;18.574;2022-07-15T01:28:09;22.60;57.80
41178;DHT22;26912;54.292;18.574;2022-07-15T01:30:37;22.60;56.60
41178;DHT22;26912;54.292;18.574;2022-07-15T01:33:04;22.50;56.80
41178;DHT22;26912;54.292;18.574;2022-07-15T01:35:32;22.40;57.10
41178;DHT22;26912;54.292;18.574;2022-07-15T01:37:58;22.70;56.70
41178;DHT22;26912;54.292;18.574;2022-07-15T01:40:25;22.50;56.80
41178;DHT22;26912;54.292;18.574;2022-07-15T01:42:53;22.20;57.40
41178;DHT22;26912;54.292;18.574;2022-07-15T01:45:19;22.30;57.60
41178;DHT22;26912;54.292;18.574;2022-07-15T01:47:49;22.20;57.90
41178;DHT22;26912;54.292;18.574;2022-07-15T01:50:34;22.30;57.90
41178;DHT22;26912;54.292;18.574;2022-07-15T01:53:09;22.30;58.10
41178;DHT22;26912;54.292;18.574;2022-07-15T01:55:36;22.30;58.10
41178;DHT22;26912;54.292;18.574;2022-07-15T01:58:02;22.20;58.40
41178;DHT22;26912;54.292;18.574;2022-07-15T02:00:28;22.10;58.60
41178;DHT22;26912;54.292;18.574;2022-07-15T02:02:55;22.10;59.00
41178;DHT22;26912;54.292;18.574;2022-07-15T02:05:22;22.10;59.10
41178;DHT22;26912;54.292;18.574;2022-07-15T02:07:50;22.20;58.70
41178;DHT22;26912;54.292;18.574;2022-07-15T02:10:18;21.90;59.20
41178;DHT22;26912;54.292;18.574;2022-07-15T02:12:47;22.00;59.60
41178;DHT22;26912;54.292;18.574;2022-07-15T02:15:17;22.10;58.80
41178;DHT22;26912;54.292;18.574;2022-07-15T02:17:47;22.30;58.60
41178;DHT22;26912;54.292;18.574;2022-07-15T02:20:14;22.10;58.90
41178;DHT22;26912;54.292;18.574;2022-07-15T02:22:44;22.20;58.80
41178;DHT22;26912;54.292;18.574;2022-07-15T02:25:10;22.00;59.00
41178;DHT22;26912;54.292;18.574;2022-07-15T02:27:37;21.90;59.40
41178;DHT22;26912;54.292;18.574;2022-07-15T02:30:04;21.80;59.60
41178;DHT22;26912;54.292;18.574;2022-07-15T02:32:35;21.90;59.30
41178;DHT22;26912;54.292;18.574;2022-07-15T02:35:01;21.80;59.50
41178;DHT22;26912;54.292;18.574;2022-07-15T02:37:29;21.70;60.20
41178;DHT22;26912;54.292;18.574;2022-07-15T02:39:55;21.80;59.60
41178;DHT22;26912;54.292;18.574;2022-07-15T02:42:24;21.90;59.30
41178;DHT22;26912;54.292;18.574;2022-07-15T02:44:50;22.00;59.10
41178;DHT22;26912;54.292;18.574;2022-07-15T02:47:17;21.90;59.60
41178;DHT22;26912;54.292;18.574;2022-07-15T02:49:43;22.20;58.70
41178;DHT22;26912;54.292;18.574;2022-07-15T02:52:11;22.00;58.70
41178;DHT22;26912;54.292;18.574;2022-07-15T02:54:41;22.00;59.20
41178;DHT22;26912;54.292;18.574;2022-07-15T02:57:08;22.10;59.00
41178;DHT22;26912;54.292;18.574;2022-07-15T02:59:36;22.10;58.90
41178;DHT22;26912;54.292;18.574;2022-07-15T03:02:03;22.30;58.90
41178;DHT22;26912;54.292;18.574;2022-07-15T03:04:30;22.40;58.40
41178;DHT22;26912;54.292;18.574;2022-07-15T03:06:56;22.50;57.90
41178;DHT22;26912;54.292;18.574;2022-07-15T03:09:23;22.20;58.30
41178;DHT22;26912;54.292;18.574;2022-07-15T03:11:49;22.20;58.60
41178;DHT22;26912;54.292;18.574;2022-07-15T03:14:16;22.20;58.50
41178;DHT22;26912;54.292;18.574;2022-07-15T03:16:42;22.20;58.30
41178;DHT22;26912;54.292;18.574;2022-07-15T03:19:09;22.10;58.40
41178;DHT22;26912;54.292;18.574;2022-07-15T03:21:40;22.20;58.30
41178;DHT22;26912;54.292;18.574;2022-07-15T03:24:06;22.20;58.50
41178;DHT22;26912;54.292;18.574;2022-07-15T03:26:34;22.00;58.60
41178;DHT22;26912;54.292;18.574;2022-07-15T03:29:02;22.00;59.00
41178;DHT22;26912;54.292;18.574;2022-07-15T03:31:29;22.00;58.40
41178;DHT22;26912;54.292;18.574;2022-07-15T03:33:56;22.20;58.40
41178;DHT22;26912;54.292;18.574;2022-07-15T03:36:25;22.10;57.90
41178;DHT22;26912;54.292;18.574;2022-07-15T03:38:52;21.90;58.30
41178;DHT22;26912;54.292;18.574;2022-07-15T03:41:19;21.70;59.00
41178;DHT22;26912;54.292;18.574;2022-07-15T03:43:46;21.70;59.00
41178;DHT22;26912;54.292;18.574;2022-07-15T03:46:13;21.80;58.80
41178;DHT22;26912;54.292;18.574;2022-07-15T03:48:45;21.70;59.10
41178;DHT22;26912;54.292;18.574;2022-07-15T03:51:11;21.60;59.20
41178;DHT22;26912;54.292;18.574;2022-07-15T03:53:38;21.50;59.40
41178;DHT22;26912;54.292;18.574;2022-07-15T03:56:05;21.50;59.80
41178;DHT22;26912;54.292;18.574;2022-07-15T03:58:32;21.60;59.00
41178;DHT22;26912;54.292;18.574;2022-07-15T04:00:58;21.40;59.50
41178;DHT22;26912;54.292;18.574;2022-07-15T04:03:26;21.50;59.50
41178;DHT22;26912;54.292;18.574;2022-07-15T04:05:53;21.40;59.30
41178;DHT22;26912;54.292;18.574;2022-07-15T04:08:20;21.40;59.50
41178;DHT22;26912;54.292;18.574;2022-07-15T04:10:46;21.60;59.20
41178;DHT22;26912;54.292;18.574;2022-07-15T04:13:12;21.60;58.90
41178;DHT22;26912;54.292;18.574;2022-07-15T04:15:39;21.60;58.90
41178;DHT22;26912;54.292;18.574;2022-07-15T04:18:05;21.60;58.70
41178;DHT22;26912;54.292;18.574;2022-07-15T04:20:31;21.70;58.60
41178;DHT22;26912;54.292;18.574;2022-07-15T04:23:00;21.80;58.70
41178;DHT22;26912;54.292;18.574;2022-07-15T04:25:26;21.70;58.30
41178;DHT22;26912;54.292;18.574;2022-07-15T04:27:53;21.70;58.90
41178;DHT22;26912;54.292;18.574;2022-07-15T04:30:24;21.80;58.60
41178;DHT22;26912;54.292;18.574;2022-07-15T04:32:51;21.90;58.20
41178;DHT22;26912;54.292;18.574;2022-07-15T04:35:18;21.70;58.40
41178;DHT22;26912;54.292;18.574;2022-07-15T04:37:50;21.70;58.80
41178;DHT22;26912;54.292;18.574;2022-07-15T04:40:17;21.90;58.40
41178;DHT22;26912;54.292;18.574;2022-07-15T04:42:44;22.00;58.50
41178;DHT22;26912;54.292;18.574;2022-07-15T04:45:13;22.00;58.50
41178;DHT22;26912;54.292;18.574;2022-07-15T04:47:39;22.00;58.30
41178;DHT22;26912;54.292;18.574;2022-07-15T04:50:09;21.90;58.60
41178;DHT22;26912;54.292;18.574;2022-07-15T04:52:54;22.00;58.10
41178;DHT22;26912;54.292;18.574;2022-07-15T04:55:22;21.80;58.10
41178;DHT22;26912;54.292;18.574;2022-07-15T04:57:56;22.00;58.10
41178;DHT22;26912;54.292;18.574;2022-07-15T05:00:23;22.00;57.70
41178;DHT22;26912;54.292;18.574;2022-07-15T05:02:51;21.60;58.30
41178;DHT22;26912;54.292;18.574;2022-07-15T05:05:18;22.20;58.30
41178;DHT22;26912;54.292;18.574;2022-07-15T05:07:45;22.40;57.40
41178;DHT22;26912;54.292;18.574;2022-07-15T05:10:12;22.70;56.80
41178;DHT22;26912;54.292;18.574;2022-07-15T05:12:44;22.60;56.20
41178;DHT22;26912;54.292;18.574;2022-07-15T05:15:11;22.50;56.50
41178;DHT22;26912;54.292;18.574;2022-07-15T05:17:41;22.50;56.70
41178;DHT22;26912;54.292;18.574;2022-07-15T05:20:13;22.60;56.70
41178;DHT22;26912;54.292;18.574;2022-07-15T05:22:39;22.90;56.10
41178;DHT22;26912;54.292;18.574;2022-07-15T05:25:06;22.80;55.00
41178;DHT22;26912;54.292;18.574;2022-07-15T05:27:33;22.70;55.80
41178;DHT22;26912;54.292;18.574;2022-07-15T05:29:59;22.40;55.80
41178;DHT22;26912;54.292;18.574;2022-07-15T05:32:25;22.10;56.40
41178;DHT22;26912;54.292;18.574;2022-07-15T05:34:52;22.10;56.80
41178;DHT22;26912;54.292;18.574;2022-07-15T05:37:19;22.30;56.30
41178;DHT22;26912;54.292;18.574;2022-07-15T05:39:45;22.70;55.30
41178;DHT22;26912;54.292;18.574;2022-07-15T05:42:38;23.00;54.80
41178;DHT22;26912;54.292;18.574;2022-07-15T05:45:08;22.90;54.40
41178;DHT22;26912;54.292;18.574;2022-07-15T05:47:37;22.70;54.60
41178;DHT22;26912;54.292;18.574;2022-07-15T05:50:05;22.60;54.60
41178;DHT22;26912;54.292;18.574;2022-07-15T05:52:33;22.40;55.10
41178;DHT22;26912;54.292;18.574;2022-07-15T05:55:03;22.50;55.20
41178;DHT22;26912;54.292;18.574;2022-07-15T05:57:32;22.50;54.80
41178;DHT22;26912;54.292;18.574;2022-07-15T05:59:59;22.90;54.60
41178;DHT22;26912;54.292;18.574;2022-07-15T06:02:29;23.10;53.70
41178;DHT22;26912;54.292;18.574;2022-07-15T06:04:57;23.00;54.00
41178;DHT22;26912;54.292;18.574;2022-07-15T06:07:24;22.90;54.60
41178;DHT22;26912;54.292;18.574;2022-07-15T06:09:52;23.10;54.30
41178;DHT22;26912;54.292;18.574;2022-07-15T06:12:19;23.50;53.30
41178;DHT22;26912;54.292;18.574;2022-07-15T06:14:46;23.30;53.50
41178;DHT22;26912;54.292;18.574;2022-07-15T06:17:16;23.40;53.80
41178;DHT22;26912;54.292;18.574;2022-07-15T06:19:42;23.50;52.80
41178;DHT22;26912;54.292;18.574;2022-07-15T06:22:08;23.40;52.70
41178;DHT22;26912;54.292;18.574;2022-07-15T06:24:35;23.60;52.70
41178;DHT22;26912;54.292;18.574;2022-07-15T06:27:01;23.50;53.30
41178;DHT22;26912;54.292;18.574;2022-07-15T06:29:28;23.20;54.00
41178;DHT22;26912;54.292;18.574;2022-07-15T06:31:55;22.70;55.50
41178;DHT22;26912;54.292;18.574;2022-07-15T06:34:22;22.70;56.60
41178;DHT22;26912;54.292;18.574;2022-07-15T06:36:48;22.90;56.70
41178;DHT22;26912;54.292;18.574;2022-07-15T06:39:15;22.70;56.60
41178;DHT22;26912;54.292;18.574;2022-07-15T06:41:43;22.40;56.80
41178;DHT22;26912;54.292;18.574;2022-07-15T06:44:12;22.30;57.50
41178;DHT22;26912;54.292;18.574;2022-07-15T06:46:43;22.50;57.80
41178;DHT22;26912;54.292;18.574;2022-07-15T06:49:10;22.70;56.80
41178;DHT22;26912;54.292;18.574;2022-07-15T06:51:36;22.80;57.00
41178;DHT22;26912;54.292;18.574;2022-07-15T06:54:03;22.90;57.10
41178;DHT22;26912;54.292;18.574;2022-07-15T06:56:32;22.80;56.60
41178;DHT22;26912;54.292;18.574;2022-07-15T06:58:58;22.70;56.60
41178;DHT22;26912;54.292;18.574;2022-07-15T07:01:25;22.90;56.30
41178;DHT22;26912;54.292;18.574;2022-07-15T07:03:51;23.30;55.90
41178;DHT22;26912;54.292;18.574;2022-07-15T07:06:18;23.20;53.60
41178;DHT22;26912;54.292;18.574;2022-07-15T07:08:44;23.20;54.10
41178;DHT22;26912;54.292;18.574;2022-07-15T07:11:12;23.30;53.00
41178;DHT22;26912;54.292;18.574;2022-07-15T07:13:38;23.50;53.10
41178;DHT22;26912;54.292;18.574;2022-07-15T07:16:05;23.40;52.00
41178;DHT22;26912;54.292;18.574;2022-07-15T07:18:32;23.30;50.80
41178;DHT22;26912;54.292;18.574;2022-07-15T07:20:59;23.60;50.20
41178;DHT22;26912;54.292;18.574;2022-07-15T07:23:25;23.70;49.20
41178;DHT22;26912;54.292;18.574;2022-07-15T07:25:53;23.60;48.60
41178;DHT22;26912;54.292;18.574;2022-07-15T07:28:20;23.60;49.80
41178;DHT22;26912;54.292;18.574;2022-07-15T07:30:47;23.90;48.60
41178;DHT22;26912;54.292;18.574;2022-07-15T07:33:15;24.20;47.90
41178;DHT22;26912;54.292;18.574;2022-07-15T07:35:42;24.30;47.10
41178;DHT22;26912;54.292;18.574;2022-07-15T07:38:10;24.20;47.60
41178;DHT22;26912;54.292;18.574;2022-07-15T07:40:36;24.20;48.60
41178;DHT22;26912;54.292;18.574;2022-07-15T07:43:03;24.40;48.10
41178;DHT22;26912;54.292;18.574;2022-07-15T07:45:29;24.30;48.70
41178;DHT22;26912;54.292;18.574;2022-07-15T07:47:56;24.40;48.50
41178;DHT22;26912;54.292;18.574;2022-07-15T07:50:23;24.00;49.10
41178;DHT22;26912;54.292;18.574;2022-07-15T07:52:50;23.50;50.20
41178;DHT22;26912;54.292;18.574;2022-07-15T07:55:16;23.20;51.30
41178;DHT22;26912;54.292;18.574;2022-07-15T07:57:49;23.50;51.00
41178;DHT22;26912;54.292;18.574;2022-07-15T08:00:17;23.60;50.90
41178;DHT22;26912;54.292;18.574;2022-07-15T08:02:44;23.90;51.20
41178;DHT22;26912;54.292;18.574;2022-07-15T08:05:11;23.90;49.90
41178;DHT22;26912;54.292;18.574;2022-07-15T08:07:38;23.30;51.20
41178;DHT22;26912;54.292;18.574;2022-07-15T08:10:05;23.20;52.10
41178;DHT22;26912;54.292;18.574;2022-07-15T08:12:31;22.90;52.30
41178;DHT22;26912;54.292;18.574;2022-07-15T08:14:58;22.90;53.10
41178;DHT22;26912;54.292;18.574;2022-07-15T08:17:25;23.10;53.00
41178;DHT22;26912;54.292;18.574;2022-07-15T08:19:51;23.10;53.10
41178;DHT22;26912;54.292;18.574;2022-07-15T08:22:18;23.40;52.60
41178;DHT22;26912;54.292;18.574;2022-07-15T08:24:44;23.40;52.70
41178;DHT22;26912;54.292;18.574;2022-07-15T08:27:11;23.90;52.20
41178;DHT22;26912;54.292;18.574;2022-07-15T08:29:37;24.50;52.00
41178;DHT22;26912;54.292;18.574;2022-07-15T08:32:04;25.20;50.20
41178;DHT22;26912;54.292;18.574;2022-07-15T08:34:30;25.30;47.50
41178;DHT22;26912;54.292;18.574;2022-07-15T08:36:57;25.00;48.10
41178;DHT22;26912;54.292;18.574;2022-07-15T08:39:23;25.10;48.00
41178;DHT22;26912;54.292;18.574;2022-07-15T08:41:51;25.10;48.00
41178;DHT22;26912;54.292;18.574;2022-07-15T08:44:18;25.30;47.90
41178;DHT22;26912;54.292;18.574;2022-07-15T08:46:48;25.20;46.50
41178;DHT22;26912;54.292;18.574;2022-07-15T08:49:16;25.00;46.30
41178;DHT22;26912;54.292;18.574;2022-07-15T08:51:45;25.00;47.20
41178;DHT22;26912;54.292;18.574;2022-07-15T08:54:13;25.60;46.80
41178;DHT22;26912;54.292;18.574;2022-07-15T08:56:40;25.80;45.70
41178;DHT22;26912;54.292;18.574;2022-07-15T08:59:09;25.80;45.90
41178;DHT22;26912;54.292;18.574;2022-07-15T09:01:42;26.00;45.60
41178;DHT22;26912;54.292;18.574;2022-07-15T09:04:09;25.40;46.80
41178;DHT22;26912;54.292;18.574;2022-07-15T09:06:41;25.00;48.90
41178;DHT22;26912;54.292;18.574;2022-07-15T09:12:06;25.20;50.30
41178;DHT22;26912;54.292;18.574;2022-07-15T09:14:34;25.20;48.90
41178;DHT22;26912;54.292;18.574;2022-07-15T09:20:00;25.30;50.20
41178;DHT22;26912;54.292;18.574;2022-07-15T09:22:29;25.40;49.20
41178;DHT22;26912;54.292;18.574;2022-07-15T09:25:06;25.60;48.40
41178;DHT22;26912;54.292;18.574;2022-07-15T09:27:43;25.80;48.40
41178;DHT22;26912;54.292;18.574;2022-07-15T09:30:33;25.70;47.00
41178;DHT22;26912;54.292;18.574;2022-07-15T09:33:27;26.10;47.70
41178;DHT22;26912;54.292;18.574;2022-07-15T09:38:51;26.30;45.80
41178;DHT22;26912;54.292;18.574;2022-07-15T09:41:26;26.40;46.70
41178;DHT22;26912;54.292;18.574;2022-07-15T09:46:27;27.10;44.80
41178;DHT22;26912;54.292;18.574;2022-07-15T09:48:54;26.70;45.60
41178;DHT22;26912;54.292;18.574;2022-07-15T09:51:22;26.30;45.80
41178;DHT22;26912;54.292;18.574;2022-07-15T09:53:48;26.40;45.70
41178;DHT22;26912;54.292;18.574;2022-07-15T09:56:20;26.60;46.10
41178;DHT22;26912;54.292;18.574;2022-07-15T09:58:49;26.90;45.30
41178;DHT22;26912;54.292;18.574;2022-07-15T10:01:16;27.10;44.90
41178;DHT22;26912;54.292;18.574;2022-07-15T10:03:43;26.90;43.90
41178;DHT22;26912;54.292;18.574;2022-07-15T10:06:13;26.60;44.90
41178;DHT22;26912;54.292;18.574;2022-07-15T10:08:39;26.90;43.90
41178;DHT22;26912;54.292;18.574;2022-07-15T10:11:09;26.60;43.80
41178;DHT22;26912;54.292;18.574;2022-07-15T10:19:30;28.40;43.20
41178;DHT22;26912;54.292;18.574;2022-07-15T10:24:57;29.20;41.80
41178;DHT22;26912;54.292;18.574;2022-07-15T10:30:07;28.70;43.00
41178;DHT22;26912;54.292;18.574;2022-07-15T10:33:15;29.10;42.10
41178;DHT22;26912;54.292;18.574;2022-07-15T10:38:30;28.90;41.90
41178;DHT22;26912;54.292;18.574;2022-07-15T10:43:44;29.50;40.40
41178;DHT22;26912;54.292;18.574;2022-07-15T10:46:17;29.90;39.60
41178;DHT22;26912;54.292;18.574;2022-07-15T10:48:49;29.90;38.50
41178;DHT22;26912;54.292;18.574;2022-07-15T10:56:50;30.00;39.50
41178;DHT22;26912;54.292;18.574;2022-07-15T10:59:22;30.40;38.10
41178;DHT22;26912;54.292;18.574;2022-07-15T11:04:31;30.60;37.90
41178;DHT22;26912;54.292;18.574;2022-07-15T11:09:57;29.10;39.10
41178;DHT22;26912;54.292;18.574;2022-07-15T11:15:00;28.00;41.20
41178;DHT22;26912;54.292;18.574;2022-07-15T11:20:02;27.60;42.80
41178;DHT22;26912;54.292;18.574;2022-07-15T11:22:32;27.30;43.40
41178;DHT22;26912;54.292;18.574;2022-07-15T11:24:58;27.10;45.30
41178;DHT22;26912;54.292;18.574;2022-07-15T11:27:25;27.10;46.30
41178;DHT22;26912;54.292;18.574;2022-07-15T11:29:56;27.00;47.40
41178;DHT22;26912;54.292;18.574;2022-07-15T11:32:30;26.90;47.20
41178;DHT22;26912;54.292;18.574;2022-07-15T11:34:58;26.50;48.80
41178;DHT22;26912;54.292;18.574;2022-07-15T11:37:28;26.60;48.20
41178;DHT22;26912;54.292;18.574;2022-07-15T11:40:07;27.10;48.50
41178;DHT22;26912;54.292;18.574;2022-07-15T11:42:34;27.80;46.00
41178;DHT22;26912;54.292;18.574;2022-07-15T11:45:37;28.30;45.60
41178;DHT22;26912;54.292;18.574;2022-07-15T11:48:06;29.30;44.80
41178;DHT22;26912;54.292;18.574;2022-07-15T11:50:37;29.90;42.30
41178;DHT22;26912;54.292;18.574;2022-07-15T11:53:16;30.10;41.80
41178;DHT22;26912;54.292;18.574;2022-07-15T11:55:57;29.80;40.60
41178;DHT22;26912;54.292;18.574;2022-07-15T11:58:33;29.50;42.10
41178;DHT22;26912;54.292;18.574;2022-07-15T12:01:02;29.00;43.10
41178;DHT22;26912;54.292;18.574;2022-07-15T12:03:34;28.30;45.10
41178;DHT22;26912;54.292;18.574;2022-07-15T12:06:08;27.60;46.20
41178;DHT22;26912;54.292;18.574;2022-07-15T12:11:26;28.30;48.60
41178;DHT22;26912;54.292;18.574;2022-07-15T12:13:56;28.60;45.10
41178;DHT22;26912;54.292;18.574;2022-07-15T12:16:42;29.20;44.40
41178;DHT22;26912;54.292;18.574;2022-07-15T12:19:14;29.70;42.90
41178;DHT22;26912;54.292;18.574;2022-07-15T12:21:43;29.90;41.30
41178;DHT22;26912;54.292;18.574;2022-07-15T12:24:10;30.80;41.30
41178;DHT22;26912;54.292;18.574;2022-07-15T12:26:40;31.10;38.60
41178;DHT22;26912;54.292;18.574;2022-07-15T12:29:09;30.40;37.80
41178;DHT22;26912;54.292;18.574;2022-07-15T12:31:38;30.30;38.70
41178;DHT22;26912;54.292;18.574;2022-07-15T12:34:04;30.00;37.70
41178;DHT22;26912;54.292;18.574;2022-07-15T12:36:34;29.80;38.50
41178;DHT22;26912;54.292;18.574;2022-07-15T12:41:33;29.00;38.70
41178;DHT22;26912;54.292;18.574;2022-07-15T12:44:01;29.50;39.60
41178;DHT22;26912;54.292;18.574;2022-07-15T12:46:58;29.70;38.40
41178;DHT22;26912;54.292;18.574;2022-07-15T12:49:51;30.10;38.30
41178;DHT22;26912;54.292;18.574;2022-07-15T12:52:22;30.40;37.50
41178;DHT22;26912;54.292;18.574;2022-07-15T12:54:52;30.50;37.70
41178;DHT22;26912;54.292;18.574;2022-07-15T12:57:34;30.30;37.30
41178;DHT22;26912;54.292;18.574;2022-07-15T13:00:15;29.70;37.60
41178;DHT22;26912;54.292;18.574;2022-07-15T13:03:01;29.30;38.00
41178;DHT22;26912;54.292;18.574;2022-07-15T13:05:31;29.80;37.70
41178;DHT22;26912;54.292;18.574;2022-07-15T13:07:58;30.30;38.40
41178;DHT22;26912;54.292;18.574;2022-07-15T13:10:24;30.60;36.90
41178;DHT22;26912;54.292;18.574;2022-07-15T13:12:53;30.70;37.00
41178;DHT22;26912;54.292;18.574;2022-07-15T13:15:19;30.50;36.90
41178;DHT22;26912;54.292;18.574;2022-07-15T13:17:45;30.00;37.20
41178;DHT22;26912;54.292;18.574;2022-07-15T13:20:12;29.10;37.40
41178;DHT22;26912;54.292;18.574;2022-07-15T13:22:39;28.50;39.10
41178;DHT22;26912;54.292;18.574;2022-07-15T13:25:09;28.50;39.70
41178;DHT22;26912;54.292;18.574;2022-07-15T13:27:36;28.10;40.30
41178;DHT22;26912;54.292;18.574;2022-07-15T13:30:04;27.70;41.00
41178;DHT22;26912;54.292;18.574;2022-07-15T13:32:30;26.80;41.80
41178;DHT22;26912;54.292;18.574;2022-07-15T13:34:57;26.70;42.70
41178;DHT22;26912;54.292;18.574;2022-07-15T13:37:24;26.60;42.40
41178;DHT22;26912;54.292;18.574;2022-07-15T13:39:50;27.30;42.40
41178;DHT22;26912;54.292;18.574;2022-07-15T13:42:17;27.90;41.40
41178;DHT22;26912;54.292;18.574;2022-07-15T13:44:44;28.70;40.90
41178;DHT22;26912;54.292;18.574;2022-07-15T13:47:10;29.30;39.70
41178;DHT22;26912;54.292;18.574;2022-07-15T13:49:36;29.70;38.60
41178;DHT22;26912;54.292;18.574;2022-07-15T13:52:21;30.50;38.20
41178;DHT22;26912;54.292;18.574;2022-07-15T13:54:48;30.60;37.40
41178;DHT22;26912;54.292;18.574;2022-07-15T13:57:14;29.90;37.20
41178;DHT22;26912;54.292;18.574;2022-07-15T13:59:40;29.10;38.20
41178;DHT22;26912;54.292;18.574;2022-07-15T14:02:07;28.70;39.00
41178;DHT22;26912;54.292;18.574;2022-07-15T14:04:33;28.30;39.90
41178;DHT22;26912;54.292;18.574;2022-07-15T14:07:00;28.30;39.50
41178;DHT22;26912;54.292;18.574;2022-07-15T14:09:27;28.20;40.10
41178;DHT22;26912;54.292;18.574;2022-07-15T14:11:54;28.00;40.10
41178;DHT22;26912;54.292;18.574;2022-07-15T14:14:20;27.60;40.80
41178;DHT22;26912;54.292;18.574;2022-07-15T14:16:47;28.30;41.00
41178;DHT22;26912;54.292;18.574;2022-07-15T14:19:14;29.20;40.10
41178;DHT22;26912;54.292;18.574;2022-07-15T14:21:41;29.80;38.70
41178;DHT22;26912;54.292;18.574;2022-07-15T14:24:08;29.40;38.70
41178;DHT22;26912;54.292;18.574;2022-07-15T14:26:34;29.40;37.70
41178;DHT22;26912;54.292;18.574;2022-07-15T14:29:00;29.80;37.30
41178;DHT22;26912;54.292;18.574;2022-07-15T14:31:27;30.10;37.40
41178;DHT22;26912;54.292;18.574;2022-07-15T14:33:53;30.70;36.20
41178;DHT22;26912;54.292;18.574;2022-07-15T14:36:19;30.20;36.00
41178;DHT22;26912;54.292;18.574;2022-07-15T14:38:46;30.60;36.30
41178;DHT22;26912;54.292;18.574;2022-07-15T14:41:13;31.00;35.60
41178;DHT22;26912;54.292;18.574;2022-07-15T14:43:39;31.10;35.00
41178;DHT22;26912;54.292;18.574;2022-07-15T14:46:06;31.30;34.70
41178;DHT22;26912;54.292;18.574;2022-07-15T14:48:33;31.10;34.80
41178;DHT22;26912;54.292;18.574;2022-07-15T14:51:00;31.10;34.30
41178;DHT22;26912;54.292;18.574;2022-07-15T14:53:26;30.80;34.30
41178;DHT22;26912;54.292;18.574;2022-07-15T14:55:52;30.60;34.30
41178;DHT22;26912;54.292;18.574;2022-07-15T14:58:18;30.40;34.60
41178;DHT22;26912;54.292;18.574;2022-07-15T15:00:46;30.00;35.70
41178;DHT22;26912;54.292;18.574;2022-07-15T15:03:16;30.10;37.20
41178;DHT22;26912;54.292;18.574;2022-07-15T15:05:45;30.00;36.40
41178;DHT22;26912;54.292;18.574;2022-07-15T15:08:11;30.50;36.40
41178;DHT22;26912;54.292;18.574;2022-07-15T15:10:38;31.10;34.80
41178;DHT22;26912;54.292;18.574;2022-07-15T15:13:04;31.30;35.40
41178;DHT22;26912;54.292;18.574;2022-07-15T15:15:31;31.30;34.90
41178;DHT22;26912;54.292;18.574;2022-07-15T15:17:57;30.40;35.80
41178;DHT22;26912;54.292;18.574;2022-07-15T15:20:23;29.60;37.40
41178;DHT22;26912;54.292;18.574;2022-07-15T15:22:50;29.00;39.20
41178;DHT22;26912;54.292;18.574;2022-07-15T15:25:16;29.10;40.00
41178;DHT22;26912;54.292;18.574;2022-07-15T15:28:03;29.50;40.20
41178;DHT22;26912;54.292;18.574;2022-07-15T15:30:29;29.70;40.10
41178;DHT22;26912;54.292;18.574;2022-07-15T15:32:56;29.90;39.80
41178;DHT22;26912;54.292;18.574;2022-07-15T15:35:22;28.70;40.70
41178;DHT22;26912;54.292;18.574;2022-07-15T15:37:49;28.20;42.00
41178;DHT22;26912;54.292;18.574;2022-07-15T15:40:15;27.60;43.20
41178;DHT22;26912;54.292;18.574;2022-07-15T15:42:42;26.90;44.80
41178;DHT22;26912;54.292;18.574;2022-07-15T15:45:09;26.70;46.50
41178;DHT22;26912;54.292;18.574;2022-07-15T15:47:36;26.70;48.20
41178;DHT22;26912;54.292;18.574;2022-07-15T15:50:02;26.10;48.80
41178;DHT22;26912;54.292;18.574;2022-07-15T15:52:29;25.50;50.20
41178;DHT22;26912;54.292;18.574;2022-07-15T15:54:55;24.80;50.60
41178;DHT22;26912;54.292;18.574;2022-07-15T15:57:23;24.50;50.90
41178;DHT22;26912;54.292;18.574;2022-07-15T15:59:49;24.40;50.70
41178;DHT22;26912;54.292;18.574;2022-07-15T16:02:16;24.60;51.20
41178;DHT22;26912;54.292;18.574;2022-07-15T16:04:43;25.00;50.80
41178;DHT22;26912;54.292;18.574;2022-07-15T16:07:09;25.30;51.20
41178;DHT22;26912;54.292;18.574;2022-07-15T16:09:35;25.80;50.80
41178;DHT22;26912;54.292;18.574;2022-07-15T16:12:02;26.10;50.20
41178;DHT22;26912;54.292;18.574;2022-07-15T16:14:28;26.60;50.10